Time;durP1;ratioP1;P1;durP2;ratioP2;P2;SDS_P1;SDS_P2;PMS_P1;PMS_P2;Temp;Humidity;BMP_temperature;BMP_pressure;BME280_temperature;BME280_humidity;BME280_pressure;Samples;Min_cycle;Max_cycle;Signal;HPM_P1;HPM_P2
2022/09/30 00:02:13;;;;;;;10.53;7.47;;;;;;;;;;4982693;28;20665;-68
2022/09/30 00:04:40;;;;;;;12.07;7.70;;;;;;;;;;4968993;28;20485;-68
2022/09/30 00:07:07;;;;;;;11.23;7.30;;;;;;;;;;4962929;28;20201;-69
2022/09/30 00:09:33;;;;;;;12.17;7.93;;;;;;;;;;4965687;28;20540;-69
2022/09/30 00:12:00;;;;;;;12.93;8.47;;;;;;;;;;4968127;28;20197;-68
2022/09/30 00:14:27;;;;;;;11.37;8.50;;;;;;;;;;4968683;28;20461;-69
2022/09/30 00:16:53;;;;;;;12.23;8.37;;;;;;;;;;4970688;28;20186;-69
2022/09/30 00:19:20;;;;;;;13.63;8.93;;;;;;;;;;4967614;28;20193;-68
2022/09/30 00:21:47;;;;;;;13.60;8.70;;;;;;;;;;4966816;28;20476;-69
2022/09/30 00:24:13;;;;;;;14.13;8.87;;;;;;;;;;4963373;28;20284;-68
2022/09/30 00:26:40;;;;;;;13.80;8.87;;;;;;;;;;4969786;28;20198;-68
2022/09/30 00:29:08;;;;;;;14.27;9.53;;;;;;;;;;4964096;28;20252;-69
2022/09/30 00:31:34;;;;;;;15.03;9.50;;;;;;;;;;4968050;28;20204;-69
2022/09/30 00:34:07;;;;;;;12.57;8.67;;;;;;;;;;4968361;28;20200;-69
2022/09/30 00:36:44;;;;;;;14.03;9.00;;;;;;;;;;4968753;28;20190;-69
2022/09/30 00:39:18;;;;;;;13.73;9.00;;;;;;;;;;4969002;28;20213;-69
2022/09/30 00:41:46;;;;;;;12.20;8.47;;;;;;;;;;4969265;28;20201;-68
2022/09/30 00:44:31;;;;;;;11.83;7.63;;;;;;;;;;4968443;28;20256;-69
2022/09/30 00:46:58;;;;;;;11.40;7.80;;;;;;;;;;4964520;28;20201;-68
2022/09/30 00:49:24;;;;;;;13.07;7.70;;;;;;;;;;4969437;28;20189;-68
2022/09/30 00:51:52;;;;;;;10.87;7.70;;;;;;;;;;4969453;28;20193;-69
2022/09/30 00:54:20;;;;;;;11.70;7.47;;;;;;;;;;4966964;28;20189;-69
2022/09/30 00:56:48;;;;;;;12.03;7.73;;;;;;;;;;4955443;28;20222;-68
2022/09/30 00:59:16;;;;;;;11.07;7.80;;;;;;;;;;4954930;28;20271;-68
2022/09/30 01:01:42;;;;;;;12.37;7.90;;;;;;;;;;4968903;28;20193;-69
2022/09/30 01:04:10;;;;;;;11.30;7.37;;;;;;;;;;4968171;28;20679;-68
2022/09/30 01:06:37;;;;;;;12.67;8.47;;;;;;;;;;4968237;28;20193;-68
2022/09/30 01:09:04;;;;;;;12.07;8.60;;;;;;;;;;4969337;28;20665;-68
2022/09/30 01:11:30;;;;;;;17.17;10.20;;;;;;;;;;4964297;28;20186;-68
2022/09/30 01:14:01;;;;;;;12.77;8.03;;;;;;;;;;4967372;28;20197;-68
2022/09/30 01:16:34;;;;;;;12.90;8.57;;;;;;;;;;4968958;28;20198;-68
2022/09/30 01:19:04;;;;;;;16.47;10.50;;;;;;;;;;4971452;28;20245;-68
2022/09/30 01:21:39;;;;;;;13.37;8.60;;;;;;;;;;4974075;28;20248;-68
2022/09/30 01:24:12;;;;;;;13.17;9.47;;;;;;;;;;4958341;28;20672;-68
2022/09/30 01:26:57;;;;;;;13.90;8.80;;;;;;;;;;4972854;28;20204;-68
2022/09/30 01:29:26;;;;;;;11.17;8.33;;;;;;;;;;4968815;28;20186;-69
2022/09/30 01:32:01;;;;;;;18.33;9.00;;;;;;;;;;4954576;28;20198;-68
2022/09/30 01:34:46;;;;;;;13.90;9.07;;;;;;;;;;4959734;28;20275;-68
2022/09/30 01:37:17;;;;;;;17.17;10.00;;;;;;;;;;4973483;28;20193;-68
2022/09/30 01:39:44;;;;;;;16.07;9.93;;;;;;;;;;4972628;28;20684;-68
2022/09/30 01:42:14;;;;;;;16.77;11.43;;;;;;;;;;4970435;28;20867;-69
2022/09/30 01:45:19;;;;;;;14.90;10.20;;;;;;;;;;4972473;28;20219;-69
2022/09/30 01:47:55;;;;;;;14.93;10.20;;;;;;;;;;4940143;29;20609;-68
2022/09/30 01:50:24;;;;;;;14.90;10.47;;;;;;;;;;4918775;29;20493;-68
2022/09/30 01:52:51;;;;;;;15.10;9.33;;;;;;;;;;4946162;28;20256;-68
2022/09/30 01:55:20;;;;;;;14.03;8.50;;;;;;;;;;4972176;28;20316;-69
2022/09/30 01:57:59;;;;;;;14.20;9.33;;;;;;;;;;4988234;28;20208;-68
2022/09/30 02:00:26;;;;;;;11.90;7.93;;;;;;;;;;4973459;28;20292;-69
2022/09/30 02:02:55;;;;;;;14.27;9.10;;;;;;;;;;4964009;28;20857;-68
2022/09/30 02:05:24;;;;;;;14.43;8.87;;;;;;;;;;4957458;28;20727;-68
2022/09/30 02:07:55;;;;;;;12.67;8.60;;;;;;;;;;4970793;28;20197;-68
2022/09/30 02:10:24;;;;;;;14.03;9.10;;;;;;;;;;4970270;28;20189;-69
2022/09/30 02:12:52;;;;;;;12.83;9.00;;;;;;;;;;4952451;28;20197;-69
2022/09/30 02:15:24;;;;;;;11.87;8.27;;;;;;;;;;4970815;28;20290;-69
2022/09/30 02:17:57;;;;;;;12.67;8.90;;;;;;;;;;4950250;28;20234;-68
2022/09/30 02:20:24;;;;;;;11.50;8.33;;;;;;;;;;4968732;28;20198;-69
2022/09/30 02:22:54;;;;;;;15.27;9.10;;;;;;;;;;4972721;28;20661;-68
2022/09/30 02:25:22;;;;;;;11.67;8.70;;;;;;;;;;4970453;28;20554;-68
2022/09/30 02:27:50;;;;;;;17.55;9.38;;;;;;;;;;4970465;28;20512;-72
2022/09/30 02:30:17;;;;;;;14.00;9.90;;;;;;;;;;4971309;28;20194;-69
2022/09/30 02:32:50;;;;;;;15.73;10.30;;;;;;;;;;4966527;28;20197;-69
2022/09/30 02:35:22;;;;;;;13.63;9.60;;;;;;;;;;4952321;28;20277;-69
2022/09/30 02:37:53;;;;;;;14.13;9.07;;;;;;;;;;4970176;28;20297;-69
2022/09/30 02:40:28;;;;;;;14.87;9.43;;;;;;;;;;4970306;28;20231;-69
2022/09/30 02:42:54;;;;;;;13.67;9.40;;;;;;;;;;4970484;28;20268;-69
2022/09/30 02:45:21;;;;;;;12.37;9.00;;;;;;;;;;4970407;28;20193;-69
2022/09/30 02:47:48;;;;;;;12.60;9.53;;;;;;;;;;4971100;28;20228;-69
2022/09/30 02:50:23;;;;;;;10.87;7.53;;;;;;;;;;4970574;28;20661;-69
2022/09/30 02:52:53;;;;;;;15.17;9.17;;;;;;;;;;4970055;28;20484;-69
2022/09/30 02:55:26;;;;;;;14.47;9.27;;;;;;;;;;4973662;28;20207;-68
2022/09/30 02:57:58;;;;;;;13.80;9.97;;;;;;;;;;4971545;28;20547;-69
2022/09/30 03:00:25;;;;;;;13.90;8.73;;;;;;;;;;4970010;28;20516;-69
2022/09/30 03:02:59;;;;;;;12.97;7.93;;;;;;;;;;4970073;28;20600;-68
2022/09/30 03:05:26;;;;;;;12.27;8.80;;;;;;;;;;4969308;28;20204;-69
2022/09/30 03:07:53;;;;;;;10.97;8.20;;;;;;;;;;4966178;28;20193;-69
2022/09/30 03:10:19;;;;;;;11.40;7.77;;;;;;;;;;4969852;28;20202;-69
2022/09/30 03:12:53;;;;;;;11.83;7.77;;;;;;;;;;4970993;28;20256;-69
2022/09/30 03:15:23;;;;;;;13.00;6.63;;;;;;;;;;4969967;28;21015;-69
2022/09/30 03:18:06;;;;;;;12.13;8.33;;;;;;;;;;4966240;28;20461;-69
2022/09/30 03:20:38;;;;;;;12.23;6.87;;;;;;;;;;4964679;28;20484;-69
2022/09/30 03:23:12;;;;;;;12.47;8.00;;;;;;;;;;4954986;28;20194;-69
2022/09/30 03:25:46;;;;;;;13.57;8.13;;;;;;;;;;4954939;28;20236;-69
2022/09/30 03:28:21;;;;;;;10.93;7.10;;;;;;;;;;4970010;28;20444;-69
2022/09/30 03:30:58;;;;;;;10.07;7.30;;;;;;;;;;4970915;28;20197;-69
2022/09/30 03:33:28;;;;;;;10.60;7.67;;;;;;;;;;4966083;28;20281;-69
2022/09/30 03:36:01;;;;;;;14.40;7.70;;;;;;;;;;4969573;28;20221;-69
2022/09/30 03:38:28;;;;;;;13.47;8.13;;;;;;;;;;4971034;28;20457;-69
2022/09/30 03:41:07;;;;;;;11.40;7.80;;;;;;;;;;4963071;28;20657;-69
2022/09/30 03:43:36;;;;;;;10.63;7.77;;;;;;;;;;4962873;28;20543;-69
2022/09/30 03:46:08;;;;;;;10.90;6.83;;;;;;;;;;4965679;28;20523;-69
2022/09/30 03:48:35;;;;;;;10.10;7.53;;;;;;;;;;4959477;28;20476;-69
2022/09/30 03:51:02;;;;;;;13.37;7.67;;;;;;;;;;4957440;28;20453;-69
2022/09/30 03:53:29;;;;;;;11.40;7.50;;;;;;;;;;4968977;28;20539;-69
2022/09/30 03:55:55;;;;;;;10.23;7.03;;;;;;;;;;4970446;28;21009;-69
2022/09/30 03:58:22;;;;;;;12.37;7.30;;;;;;;;;;4951841;28;20528;-69
2022/09/30 04:00:50;;;;;;;8.57;6.00;;;;;;;;;;4957588;28;20457;-69
2022/09/30 04:03:18;;;;;;;13.93;7.87;;;;;;;;;;4968618;28;20455;-69
2022/09/30 04:05:45;;;;;;;8.87;6.77;;;;;;;;;;4957598;28;21116;-69
2022/09/30 04:08:12;;;;;;;10.03;6.87;;;;;;;;;;4954141;28;20569;-68
2022/09/30 04:10:39;;;;;;;8.60;6.37;;;;;;;;;;4960678;28;20206;-69
2022/09/30 04:13:07;;;;;;;11.67;8.30;;;;;;;;;;4963415;28;20535;-69
2022/09/30 04:15:35;;;;;;;9.83;6.97;;;;;;;;;;4970280;28;20778;-69
2022/09/30 04:18:02;;;;;;;13.80;9.43;;;;;;;;;;4970865;28;20437;-68
2022/09/30 04:20:29;;;;;;;12.57;7.60;;;;;;;;;;4957127;28;20500;-68
2022/09/30 04:22:57;;;;;;;14.17;7.93;;;;;;;;;;4967629;28;20461;-68
2022/09/30 04:25:24;;;;;;;11.63;8.07;;;;;;;;;;4966087;28;20783;-69
2022/09/30 04:27:51;;;;;;;11.00;7.57;;;;;;;;;;4975378;28;21011;-68
2022/09/30 04:30:18;;;;;;;12.30;7.33;;;;;;;;;;4970278;28;20984;-69
2022/09/30 04:32:50;;;;;;;10.67;7.13;;;;;;;;;;4969233;28;20471;-68
2022/09/30 04:35:17;;;;;;;12.17;7.67;;;;;;;;;;4964293;28;20496;-68
2022/09/30 04:37:44;;;;;;;13.07;6.90;;;;;;;;;;4964201;28;20523;-69
2022/09/30 04:40:11;;;;;;;15.10;8.87;;;;;;;;;;4970526;28;20476;-68
2022/09/30 04:42:38;;;;;;;16.77;9.97;;;;;;;;;;4970402;28;20483;-68
2022/09/30 04:45:05;;;;;;;15.90;9.70;;;;;;;;;;4966541;28;20452;-69
2022/09/30 04:47:33;;;;;;;13.60;9.07;;;;;;;;;;4955606;28;21585;-69
2022/09/30 04:49:59;;;;;;;13.57;8.30;;;;;;;;;;4969273;28;20467;-69
2022/09/30 04:52:26;;;;;;;17.83;10.20;;;;;;;;;;4969645;28;20489;-68
2022/09/30 04:54:53;;;;;;;15.47;8.67;;;;;;;;;;4974973;28;20466;-68
2022/09/30 04:57:23;;;;;;;15.27;8.33;;;;;;;;;;4974374;28;20748;-69
2022/09/30 04:59:50;;;;;;;11.40;8.20;;;;;;;;;;4967937;28;20468;-69
2022/09/30 05:02:17;;;;;;;14.17;8.90;;;;;;;;;;4973186;28;20944;-68
2022/09/30 05:04:44;;;;;;;14.03;9.53;;;;;;;;;;4973826;28;20951;-69
2022/09/30 05:07:11;;;;;;;14.20;9.87;;;;;;;;;;4963325;28;20457;-68
2022/09/30 05:09:38;;;;;;;14.77;9.63;;;;;;;;;;4961854;28;20539;-69
2022/09/30 05:12:04;;;;;;;19.43;10.07;;;;;;;;;;4973170;28;20954;-68
2022/09/30 05:14:32;;;;;;;15.67;9.63;;;;;;;;;;4986780;28;20848;-68
2022/09/30 05:16:58;;;;;;;17.37;11.03;;;;;;;;;;4968152;28;20511;-68
2022/09/30 05:19:25;;;;;;;17.13;9.83;;;;;;;;;;4969940;28;20483;-69
2022/09/30 05:21:53;;;;;;;15.30;10.50;;;;;;;;;;4972899;28;20947;-68
2022/09/30 05:24:20;;;;;;;16.17;10.53;;;;;;;;;;4969434;28;20500;-68
2022/09/30 05:26:47;;;;;;;16.33;10.20;;;;;;;;;;4954867;28;20512;-68
2022/09/30 05:29:14;;;;;;;15.27;10.20;;;;;;;;;;4966704;28;20457;-69
2022/09/30 05:31:41;;;;;;;24.03;11.23;;;;;;;;;;4960794;28;20209;-69
2022/09/30 05:34:08;;;;;;;23.97;12.20;;;;;;;;;;4954575;28;20442;-68
2022/09/30 05:36:35;;;;;;;24.93;11.63;;;;;;;;;;4968721;28;20506;-68
2022/09/30 05:39:01;;;;;;;17.00;11.07;;;;;;;;;;4973772;28;20460;-68
2022/09/30 05:41:28;;;;;;;16.43;10.53;;;;;;;;;;4973663;28;20928;-69
2022/09/30 05:43:55;;;;;;;19.87;11.93;;;;;;;;;;4973765;28;20468;-68
2022/09/30 05:46:22;;;;;;;20.83;11.07;;;;;;;;;;4973595;28;20189;-69
2022/09/30 05:48:51;;;;;;;14.30;10.60;;;;;;;;;;4973944;28;20569;-68
2022/09/30 05:51:17;;;;;;;15.43;9.77;;;;;;;;;;4973640;28;20437;-68
2022/09/30 05:53:44;;;;;;;17.03;11.53;;;;;;;;;;4984382;28;20285;-68
2022/09/30 05:56:11;;;;;;;15.97;10.10;;;;;;;;;;4954443;28;20421;-69
2022/09/30 05:58:39;;;;;;;15.73;11.10;;;;;;;;;;4969050;28;20552;-68
2022/09/30 06:01:07;;;;;;;15.33;10.30;;;;;;;;;;4954377;28;20213;-68
2022/09/30 06:03:39;;;;;;;18.63;11.10;;;;;;;;;;4954650;28;20809;-68
2022/09/30 06:06:05;;;;;;;14.57;10.37;;;;;;;;;;4951544;29;20190;-68
2022/09/30 06:08:32;;;;;;;16.33;10.03;;;;;;;;;;4971544;28;20201;-68
2022/09/30 06:10:59;;;;;;;16.13;11.27;;;;;;;;;;4973474;28;20955;-68
2022/09/30 06:13:26;;;;;;;18.57;11.47;;;;;;;;;;4972119;28;20608;-68
2022/09/30 06:15:55;;;;;;;16.33;10.83;;;;;;;;;;4973638;28;20673;-68
2022/09/30 06:18:22;;;;;;;16.30;11.77;;;;;;;;;;4973447;28;20197;-68
2022/09/30 06:20:49;;;;;;;23.87;13.10;;;;;;;;;;4971880;28;20174;-68
2022/09/30 06:23:16;;;;;;;18.90;12.50;;;;;;;;;;4973289;28;20240;-68
2022/09/30 06:25:43;;;;;;;21.17;13.67;;;;;;;;;;4972059;28;20197;-68
2022/09/30 06:28:10;;;;;;;26.13;16.73;;;;;;;;;;4973035;28;20657;-68
2022/09/30 06:30:36;;;;;;;23.03;13.90;;;;;;;;;;4973388;28;20193;-68
2022/09/30 06:33:03;;;;;;;23.87;15.60;;;;;;;;;;4969444;28;20197;-68
2022/09/30 06:35:30;;;;;;;25.13;15.50;;;;;;;;;;4954548;28;20601;-68
2022/09/30 06:37:57;;;;;;;25.77;16.27;;;;;;;;;;4968402;28;20572;-68
2022/09/30 06:40:24;;;;;;;27.90;19.00;;;;;;;;;;4971462;28;20213;-68
2022/09/30 06:42:51;;;;;;;29.73;18.83;;;;;;;;;;4973071;28;20225;-68
2022/09/30 06:45:20;;;;;;;30.47;17.77;;;;;;;;;;4971732;28;20215;-69
2022/09/30 06:47:58;;;;;;;26.37;17.13;;;;;;;;;;4972838;28;20208;-69
2022/09/30 06:50:26;;;;;;;28.77;16.37;;;;;;;;;;4971419;28;20217;-68
2022/09/30 06:52:58;;;;;;;24.80;15.63;;;;;;;;;;4973030;28;20224;-68
2022/09/30 06:55:26;;;;;;;23.27;15.30;;;;;;;;;;4970392;28;20272;-69
2022/09/30 06:57:53;;;;;;;22.90;15.50;;;;;;;;;;4936588;29;20190;-69
2022/09/30 07:00:20;;;;;;;18.43;14.60;;;;;;;;;;4952092;29;20304;-69
2022/09/30 07:02:47;;;;;;;21.10;14.47;;;;;;;;;;4952835;29;20198;-69
2022/09/30 07:05:15;;;;;;;26.10;15.17;;;;;;;;;;4953079;28;20277;-69
2022/09/30 07:07:42;;;;;;;20.20;13.67;;;;;;;;;;4951693;29;20190;-69
2022/09/30 07:10:09;;;;;;;23.67;13.27;;;;;;;;;;4952926;28;20186;-69
2022/09/30 07:12:36;;;;;;;20.07;12.90;;;;;;;;;;4952887;28;20197;-69
2022/09/30 07:15:03;;;;;;;18.77;12.60;;;;;;;;;;4952901;29;20258;-69
2022/09/30 07:17:29;;;;;;;22.50;13.37;;;;;;;;;;4951352;28;20554;-69
2022/09/30 07:19:57;;;;;;;17.00;12.47;;;;;;;;;;4951460;29;20213;-69
2022/09/30 07:22:28;;;;;;;18.40;13.23;;;;;;;;;;4952532;28;20197;-69
2022/09/30 07:24:56;;;;;;;21.50;14.57;;;;;;;;;;4953006;29;20209;-69
2022/09/30 07:27:23;;;;;;;26.40;16.63;;;;;;;;;;4952736;28;20276;-69
2022/09/30 07:29:49;;;;;;;33.27;19.20;;;;;;;;;;4967353;28;20230;-69
2022/09/30 07:32:35;;;;;;;17.10;11.80;;;;;;;;;;4951503;29;20339;-69
2022/09/30 07:35:05;;;;;;;14.27;10.50;;;;;;;;;;4951153;29;20198;-69
2022/09/30 07:37:34;;;;;;;12.47;9.73;;;;;;;;;;4963660;28;20194;-69
2022/09/30 07:40:05;;;;;;;13.70;8.83;;;;;;;;;;4971438;28;20213;-69
2022/09/30 07:42:31;;;;;;;14.40;9.23;;;;;;;;;;4971971;28;20248;-69
2022/09/30 07:44:59;;;;;;;12.43;9.50;;;;;;;;;;4970524;28;20190;-69
2022/09/30 07:47:26;;;;;;;13.40;9.93;;;;;;;;;;4963629;28;20725;-69
2022/09/30 07:49:53;;;;;;;15.50;8.93;;;;;;;;;;4952112;29;20226;-69
2022/09/30 07:52:19;;;;;;;10.30;8.50;;;;;;;;;;4952438;28;20249;-69
2022/09/30 07:54:46;;;;;;;13.57;8.47;;;;;;;;;;4952506;29;20197;-69
2022/09/30 07:57:16;;;;;;;9.93;7.90;;;;;;;;;;4952108;29;20554;-69
2022/09/30 07:59:43;;;;;;;10.93;8.07;;;;;;;;;;4951922;28;20210;-69
2022/09/30 08:02:13;;;;;;;9.00;7.67;;;;;;;;;;4951985;28;20194;-69
2022/09/30 08:04:58;;;;;;;9.17;6.80;;;;;;;;;;4955448;28;20528;-69
2022/09/30 08:07:25;;;;;;;7.73;6.90;;;;;;;;;;4971085;28;20444;-69
2022/09/30 08:09:51;;;;;;;9.33;7.03;;;;;;;;;;4971695;28;20272;-69
2022/09/30 08:12:18;;;;;;;7.07;6.23;;;;;;;;;;4971222;28;20190;-69
2022/09/30 08:14:45;;;;;;;9.23;6.77;;;;;;;;;;4971141;28;20188;-69
2022/09/30 08:17:12;;;;;;;7.60;6.23;;;;;;;;;;4971454;28;20198;-69
2022/09/30 08:19:42;;;;;;;7.50;6.33;;;;;;;;;;4971092;28;20205;-69
2022/09/30 08:22:09;;;;;;;9.00;6.43;;;;;;;;;;4970966;28;20204;-69
2022/09/30 08:24:36;;;;;;;8.53;6.80;;;;;;;;;;4954517;28;20201;-69
2022/09/30 08:27:03;;;;;;;7.77;5.60;;;;;;;;;;4951180;28;20562;-69
2022/09/30 08:29:30;;;;;;;8.43;6.63;;;;;;;;;;4951301;28;20281;-69
2022/09/30 08:32:17;;;;;;;10.40;7.40;;;;;;;;;;4951458;29;20186;-69
2022/09/30 08:34:43;;;;;;;8.87;7.03;;;;;;;;;;4951308;29;20281;-69
2022/09/30 08:37:10;;;;;;;9.07;6.67;;;;;;;;;;4959804;28;20189;-69
2022/09/30 08:39:37;;;;;;;9.03;6.40;;;;;;;;;;4970016;28;20308;-69
2022/09/30 08:42:24;;;;;;;11.27;7.60;;;;;;;;;;4968385;28;20251;-69
2022/09/30 08:45:09;;;;;;;11.17;8.43;;;;;;;;;;4969664;28;20899;-69
2022/09/30 08:47:47;;;;;;;10.63;7.73;;;;;;;;;;4970811;28;20268;-69
2022/09/30 08:50:34;;;;;;;10.37;6.63;;;;;;;;;;4969615;28;20212;-69
2022/09/30 08:53:19;;;;;;;11.67;6.40;;;;;;;;;;4969355;28;20263;-69
2022/09/30 08:55:45;;;;;;;9.23;6.30;;;;;;;;;;4969445;28;20200;-69
2022/09/30 08:58:26;;;;;;;9.07;5.80;;;;;;;;;;4969592;28;20553;-69
2022/09/30 09:00:54;;;;;;;7.43;5.70;;;;;;;;;;4985738;28;20576;-69
2022/09/30 09:03:21;;;;;;;6.40;5.50;;;;;;;;;;4969481;28;20205;-68
2022/09/30 09:05:53;;;;;;;7.60;5.63;;;;;;;;;;4969113;28;20208;-69
2022/09/30 09:08:23;;;;;;;8.37;5.97;;;;;;;;;;4985409;28;20201;-69
2022/09/30 09:10:53;;;;;;;7.73;6.20;;;;;;;;;;4970716;28;20201;-69
2022/09/30 09:13:41;;;;;;;7.27;5.17;;;;;;;;;;4984274;28;20340;-69
2022/09/30 09:16:10;;;;;;;6.53;5.30;;;;;;;;;;4985302;28;20276;-69
2022/09/30 09:18:41;;;;;;;6.67;5.70;;;;;;;;;;4970763;28;20194;-69
2022/09/30 09:21:20;;;;;;;9.13;6.37;;;;;;;;;;4985008;28;20220;-69
2022/09/30 09:23:50;;;;;;;8.13;5.93;;;;;;;;;;4968908;28;20205;-69
2022/09/30 09:26:17;;;;;;;9.87;5.60;;;;;;;;;;4969573;28;20193;-69
2022/09/30 09:29:03;;;;;;;5.97;5.30;;;;;;;;;;4970083;28;20194;-69
2022/09/30 09:31:30;;;;;;;6.50;5.13;;;;;;;;;;4964273;28;20240;-70
2022/09/30 09:33:59;;;;;;;6.60;4.90;;;;;;;;;;4970322;28;20232;-70
2022/09/30 09:36:32;;;;;;;8.23;4.93;;;;;;;;;;4969231;28;20245;-70
2022/09/30 09:39:02;;;;;;;6.73;5.80;;;;;;;;;;4971175;28;20189;-70
2022/09/30 09:41:34;;;;;;;7.10;5.40;;;;;;;;;;4973820;28;20217;-70
2022/09/30 09:44:07;;;;;;;8.80;4.67;;;;;;;;;;4972480;28;20292;-70
2022/09/30 09:46:40;;;;;;;7.40;4.40;;;;;;;;;;4972793;28;20200;-70
2022/09/30 09:49:15;;;;;;;6.23;4.90;;;;;;;;;;4958952;28;20658;-69
2022/09/30 09:51:46;;;;;;;6.63;4.23;;;;;;;;;;4954452;29;20253;-70
2022/09/30 09:54:12;;;;;;;5.93;4.13;;;;;;;;;;4953431;29;20190;-70
2022/09/30 09:56:39;;;;;;;4.37;3.33;;;;;;;;;;4953240;29;20727;-70
2022/09/30 09:59:13;;;;;;;3.77;3.40;;;;;;;;;;4954172;28;20213;-70
2022/09/30 10:01:52;;;;;;;5.60;3.80;;;;;;;;;;4954289;28;20222;-70
2022/09/30 10:04:24;;;;;;;4.30;3.30;;;;;;;;;;4952972;29;20194;-70
2022/09/30 10:06:54;;;;;;;5.63;3.13;;;;;;;;;;4972339;28;20197;-70
2022/09/30 10:09:32;;;;;;;3.80;3.00;;;;;;;;;;4972121;28;20186;-69
2022/09/30 10:12:05;;;;;;;3.10;2.17;;;;;;;;;;4988430;28;20224;-70
2022/09/30 10:14:32;;;;;;;2.97;2.40;;;;;;;;;;4973094;28;20256;-69
2022/09/30 10:16:59;;;;;;;3.03;2.03;;;;;;;;;;4973515;28;20692;-69
2022/09/30 10:19:27;;;;;;;2.97;1.70;;;;;;;;;;4987802;28;20545;-69
2022/09/30 10:22:10;;;;;;;1.93;1.67;;;;;;;;;;4973693;28;20189;-69
2022/09/30 10:24:37;;;;;;;3.60;2.20;;;;;;;;;;4973287;28;20665;-69
2022/09/30 10:27:15;;;;;;;3.40;2.60;;;;;;;;;;4988102;28;20201;-69
2022/09/30 10:29:45;;;;;;;2.73;2.20;;;;;;;;;;4971866;28;20314;-69
2022/09/30 10:32:12;;;;;;;4.60;2.30;;;;;;;;;;4987963;28;20240;-69
2022/09/30 10:34:41;;;;;;;3.10;1.90;;;;;;;;;;4972723;28;20224;-69
2022/09/30 10:37:14;;;;;;;3.87;2.27;;;;;;;;;;4982949;28;20252;-68
2022/09/30 10:39:41;;;;;;;4.07;2.50;;;;;;;;;;4971229;28;20301;-69
2022/09/30 10:42:17;;;;;;;3.13;2.40;;;;;;;;;;4987544;28;20185;-69
2022/09/30 10:44:52;;;;;;;3.83;2.40;;;;;;;;;;4972913;28;20217;-69
2022/09/30 10:47:20;;;;;;;3.83;2.70;;;;;;;;;;4987682;28;20193;-68
2022/09/30 10:49:50;;;;;;;3.63;2.37;;;;;;;;;;4986971;28;20193;-68
2022/09/30 10:52:27;;;;;;;2.77;2.20;;;;;;;;;;4987233;28;20999;-68
2022/09/30 10:54:54;;;;;;;2.90;2.10;;;;;;;;;;4969707;28;20621;-68
2022/09/30 10:57:31;;;;;;;3.07;2.20;;;;;;;;;;4936418;29;20269;-68
2022/09/30 10:59:59;;;;;;;2.83;2.00;;;;;;;;;;4953065;28;20194;-68
2022/09/30 11:02:29;;;;;;;3.17;1.90;;;;;;;;;;4951860;29;20198;-68
2022/09/30 11:05:02;;;;;;;2.30;1.70;;;;;;;;;;4951943;29;20666;-68
2022/09/30 11:07:30;;;;;;;2.97;2.13;;;;;;;;;;4951796;29;20700;-69
2022/09/30 11:10:15;;;;;;;3.00;1.90;;;;;;;;;;4952176;29;20187;-69
2022/09/30 11:12:47;;;;;;;2.53;1.70;;;;;;;;;;4952962;28;20281;-68
2022/09/30 11:15:14;;;;;;;2.50;2.00;;;;;;;;;;4953022;28;20221;-68
2022/09/30 11:18:00;;;;;;;3.37;2.00;;;;;;;;;;4952790;29;20201;-68
2022/09/30 11:20:29;;;;;;;2.13;1.67;;;;;;;;;;4952526;28;20213;-68
2022/09/30 11:22:58;;;;;;;2.10;1.90;;;;;;;;;;4935824;29;20683;-68
2022/09/30 11:25:37;;;;;;;2.50;2.00;;;;;;;;;;4935287;29;20225;-68
2022/09/30 11:28:08;;;;;;;3.83;1.83;;;;;;;;;;4952706;28;20213;-68
2022/09/30 11:30:38;;;;;;;3.67;2.00;;;;;;;;;;4951201;28;20249;-68
2022/09/30 11:33:34;;;;;;;3.13;2.07;;;;;;;;;;4951764;29;20654;-68
2022/09/30 11:36:07;;;;;;;2.37;2.00;;;;;;;;;;4936835;29;20233;-68
2022/09/30 11:38:39;;;;;;;2.10;1.87;;;;;;;;;;4952645;29;20205;-68
2022/09/30 11:41:06;;;;;;;3.43;1.70;;;;;;;;;;4951355;29;20265;-68
2022/09/30 11:43:43;;;;;;;2.00;1.80;;;;;;;;;;4952120;28;20706;-68
2022/09/30 11:46:15;;;;;;;2.13;1.60;;;;;;;;;;4935834;28;20224;-68
2022/09/30 11:48:48;;;;;;;3.57;2.00;;;;;;;;;;4971968;28;20190;-68
2022/09/30 11:51:21;;;;;;;2.90;1.70;;;;;;;;;;4971652;28;20252;-68
2022/09/30 11:54:03;;;;;;;1.53;1.43;;;;;;;;;;4986280;28;20186;-68
2022/09/30 11:56:45;;;;;;;2.10;1.40;;;;;;;;;;4971169;28;20189;-68
2022/09/30 11:59:33;;;;;;;2.70;2.50;;;;;;;;;;4986325;28;20197;-68
2022/09/30 12:02:01;;;;;;;2.77;2.47;;;;;;;;;;4969772;28;20367;-68
2022/09/30 12:04:30;;;;;;;4.17;2.67;;;;;;;;;;4976190;28;20190;-68
2022/09/30 12:06:59;;;;;;;3.13;2.60;;;;;;;;;;4952142;28;20281;-68
2022/09/30 12:09:47;;;;;;;3.03;2.37;;;;;;;;;;4952199;29;20177;-68
2022/09/30 12:12:15;;;;;;;3.73;2.30;;;;;;;;;;4951019;29;20193;-68
2022/09/30 12:14:42;;;;;;;2.20;1.93;;;;;;;;;;4950502;29;20706;-68
2022/09/30 12:17:19;;;;;;;3.23;2.10;;;;;;;;;;4951792;29;20297;-68
2022/09/30 12:19:49;;;;;;;3.23;1.87;;;;;;;;;;4934437;29;20323;-68
2022/09/30 12:22:21;;;;;;;2.67;2.10;;;;;;;;;;4956661;28;20300;-68
2022/09/30 12:25:32;;;;;;;3.17;2.17;;;;;;;;;;4950514;29;20171;-68
2022/09/30 12:30:16;;;;;;;2.53;2.03;;;;;;;;;;4949280;29;20674;-68
2022/09/30 12:31:12;;;;;;;4.60;2.07;;;;;;;;;;4950909;29;20178;-68
2022/09/30 12:33:42;;;;;;;3.70;2.27;;;;;;;;;;4966686;28;20201;-69
2022/09/30 12:36:18;;;;;;;2.57;2.37;;;;;;;;;;4934842;28;20190;-68
2022/09/30 12:39:00;;;;;;;2.50;2.30;;;;;;;;;;4968700;28;20197;-69
2022/09/30 12:42:17;;;;;;;3.80;2.30;;;;;;;;;;4970561;28;20209;-69
2022/09/30 12:44:54;;;;;;;2.83;2.20;;;;;;;;;;4947820;28;20259;-69
2022/09/30 12:47:29;;;;;;;2.87;2.00;;;;;;;;;;4970696;28;20208;-69
2022/09/30 12:49:57;;;;;;;2.80;2.20;;;;;;;;;;4985460;28;20723;-69
2022/09/30 12:52:23;;;;;;;3.80;2.33;;;;;;;;;;4985239;28;20196;-69
2022/09/30 12:55:10;;;;;;;3.00;2.20;;;;;;;;;;4960541;28;20273;-69
2022/09/30 12:57:39;;;;;;;2.27;1.97;;;;;;;;;;4944821;29;20233;-68
2022/09/30 13:00:12;;;;;;;3.40;2.10;;;;;;;;;;4951211;28;20240;-68
2022/09/30 13:02:59;;;;;;;2.70;2.07;;;;;;;;;;4950592;29;20205;-69
2022/09/30 13:05:26;;;;;;;2.63;2.33;;;;;;;;;;4933659;29;20197;-68
2022/09/30 13:08:05;;;;;;;2.93;2.07;;;;;;;;;;4951398;29;20245;-68
2022/09/30 13:10:32;;;;;;;2.50;2.00;;;;;;;;;;4951144;28;20221;-68
2022/09/30 13:13:17;;;;;;;4.23;1.80;;;;;;;;;;4951461;29;20187;-68
2022/09/30 13:15:45;;;;;;;2.33;1.83;;;;;;;;;;4955222;29;20194;-68
2022/09/30 13:18:25;;;;;;;4.30;2.43;;;;;;;;;;4955193;28;20747;-68
2022/09/30 13:20:56;;;;;;;2.37;2.17;;;;;;;;;;4954788;28;20293;-69
2022/09/30 13:23:42;;;;;;;4.93;2.77;;;;;;;;;;4954964;29;20179;-69
2022/09/30 13:26:21;;;;;;;3.17;2.43;;;;;;;;;;4953540;29;20182;-69
2022/09/30 13:28:49;;;;;;;3.70;2.57;;;;;;;;;;4954787;29;20217;-69
2022/09/30 13:31:17;;;;;;;2.53;2.20;;;;;;;;;;4969388;28;20190;-69
2022/09/30 13:34:00;;;;;;;3.07;2.57;;;;;;;;;;4969467;28;20265;-69
2022/09/30 13:36:40;;;;;;;4.37;3.10;;;;;;;;;;4957502;28;20194;-69
2022/09/30 13:39:17;;;;;;;4.50;2.90;;;;;;;;;;4973883;28;20193;-69
2022/09/30 13:41:45;;;;;;;5.63;2.90;;;;;;;;;;4972546;28;20228;-68
2022/09/30 13:44:14;;;;;;;3.23;2.83;;;;;;;;;;4972053;28;20217;-69
2022/09/30 13:46:42;;;;;;;4.40;2.73;;;;;;;;;;4973878;28;20225;-69
2022/09/30 13:49:11;;;;;;;4.47;3.13;;;;;;;;;;4988322;28;20239;-69
2022/09/30 13:51:39;;;;;;;4.23;3.10;;;;;;;;;;4989023;28;20232;-69
2022/09/30 13:54:12;;;;;;;3.30;2.73;;;;;;;;;;4988561;28;20197;-69
2022/09/30 13:56:39;;;;;;;7.70;3.27;;;;;;;;;;4972484;28;20657;-69
2022/09/30 13:59:36;;;;;;;5.00;3.03;;;;;;;;;;4973446;28;20194;-69
2022/09/30 14:02:07;;;;;;;4.23;3.20;;;;;;;;;;4968978;28;20320;-69
2022/09/30 14:04:50;;;;;;;5.17;3.27;;;;;;;;;;4972275;28;20443;-69
2022/09/30 14:07:19;;;;;;;3.80;3.23;;;;;;;;;;4973451;28;20225;-69
2022/09/30 14:10:05;;;;;;;6.87;3.10;;;;;;;;;;4973644;28;20193;-69
2022/09/30 14:12:44;;;;;;;5.20;3.00;;;;;;;;;;4973893;28;20189;-69
2022/09/30 14:15:17;;;;;;;3.50;2.80;;;;;;;;;;4965191;28;20270;-69
2022/09/30 14:17:47;;;;;;;3.07;2.67;;;;;;;;;;4954102;28;20222;-69
2022/09/30 14:20:50;;;;;;;3.43;2.80;;;;;;;;;;4953842;28;20198;-69
2022/09/30 14:23:17;;;;;;;3.77;2.60;;;;;;;;;;4894635;29;20290;-69
2022/09/30 14:25:49;;;;;;;4.03;2.90;;;;;;;;;;4941547;28;20214;-69
2022/09/30 14:28:17;;;;;;;5.70;3.07;;;;;;;;;;4952639;29;20665;-69
2022/09/30 14:31:06;;;;;;;3.50;3.13;;;;;;;;;;4951772;28;20297;-69
2022/09/30 14:33:33;;;;;;;7.40;3.27;;;;;;;;;;4954098;29;20189;-69
2022/09/30 14:36:00;;;;;;;5.47;3.40;;;;;;;;;;4952463;29;20198;-69
2022/09/30 14:38:28;;;;;;;4.47;2.50;;;;;;;;;;4972253;28;20283;-69
2022/09/30 14:40:56;;;;;;;3.30;2.80;;;;;;;;;;4971826;28;20216;-69
2022/09/30 14:43:24;;;;;;;3.80;2.20;;;;;;;;;;4972502;28;20225;-69
2022/09/30 14:45:53;;;;;;;2.40;2.20;;;;;;;;;;4988340;28;20194;-69
2022/09/30 14:48:21;;;;;;;2.60;2.03;;;;;;;;;;4968277;28;20206;-69
2022/09/30 14:50:56;;;;;;;2.67;1.80;;;;;;;;;;4952258;29;20182;-69
2022/09/30 14:53:24;;;;;;;3.47;2.07;;;;;;;;;;4953249;28;20194;-69
2022/09/30 14:55:52;;;;;;;2.67;2.10;;;;;;;;;;4953355;29;20193;-69
2022/09/30 14:58:27;;;;;;;3.93;1.90;;;;;;;;;;4953598;28;20194;-69